sensor_id;sensor_type;location;lat;lon;timestamp;temperature;humidity
65584;DHT22;70321;43.592;1.456;2023-06-04T00:01:10;19.73;77.96
65584;DHT22;70321;43.592;1.456;2023-06-04T00:03:36;19.65;78.21
65584;DHT22;70321;43.592;1.456;2023-06-04T00:06:01;19.62;78.52
65584;DHT22;70321;43.592;1.456;2023-06-04T00:08:26;19.58;78.83
65584;DHT22;70321;43.592;1.456;2023-06-04T00:10:52;19.58;78.84
65584;DHT22;70321;43.592;1.456;2023-06-04T00:13:17;19.56;78.97
65584;DHT22;70321;43.592;1.456;2023-06-04T00:15:43;19.55;79.06
65584;DHT22;70321;43.592;1.456;2023-06-04T00:18:08;19.59;78.86
65584;DHT22;70321;43.592;1.456;2023-06-04T00:20:36;19.56;78.99
65584;DHT22;70321;43.592;1.456;2023-06-04T00:23:01;19.49;79.40
65584;DHT22;70321;43.592;1.456;2023-06-04T00:25:27;19.49;79.47
65584;DHT22;70321;43.592;1.456;2023-06-04T00:27:52;19.46;79.65
65584;DHT22;70321;43.592;1.456;2023-06-04T00:30:18;19.45;79.66
65584;DHT22;70321;43.592;1.456;2023-06-04T00:32:43;19.41;79.82
65584;DHT22;70321;43.592;1.456;2023-06-04T00:35:09;19.45;79.72
65584;DHT22;70321;43.592;1.456;2023-06-04T00:37:35;19.46;79.52
65584;DHT22;70321;43.592;1.456;2023-06-04T00:40:00;19.45;79.79
65584;DHT22;70321;43.592;1.456;2023-06-04T00:42:26;19.35;79.95
65584;DHT22;70321;43.592;1.456;2023-06-04T00:44:51;19.36;80.01
65584;DHT22;70321;43.592;1.456;2023-06-04T00:47:18;19.36;80.03
65584;DHT22;70321;43.592;1.456;2023-06-04T00:49:45;19.35;80.05
65584;DHT22;70321;43.592;1.456;2023-06-04T00:52:15;19.26;80.09
65584;DHT22;70321;43.592;1.456;2023-06-04T00:54:41;19.25;80.37
65584;DHT22;70321;43.592;1.456;2023-06-04T00:57:06;19.25;80.41
65584;DHT22;70321;43.592;1.456;2023-06-04T00:59:35;19.28;80.47
65584;DHT22;70321;43.592;1.456;2023-06-04T01:02:06;19.36;80.43
65584;DHT22;70321;43.592;1.456;2023-06-04T01:04:44;19.35;80.27
65584;DHT22;70321;43.592;1.456;2023-06-04T01:07:11;19.35;80.11
65584;DHT22;70321;43.592;1.456;2023-06-04T01:09:38;19.38;79.87
65584;DHT22;70321;43.592;1.456;2023-06-04T01:12:05;19.24;80.18
65584;DHT22;70321;43.592;1.456;2023-06-04T01:14:30;19.22;80.74
65584;DHT22;70321;43.592;1.456;2023-06-04T01:25:20;19.44;80.31
65584;DHT22;70321;43.592;1.456;2023-06-04T01:27:52;19.45;79.84
65584;DHT22;70321;43.592;1.456;2023-06-04T01:30:21;19.49;80.05
65584;DHT22;70321;43.592;1.456;2023-06-04T01:32:48;19.52;80.07
65584;DHT22;70321;43.592;1.456;2023-06-04T01:35:14;19.55;79.95
65584;DHT22;70321;43.592;1.456;2023-06-04T01:37:39;19.55;79.51
65584;DHT22;70321;43.592;1.456;2023-06-04T01:40:06;19.58;79.54
65584;DHT22;70321;43.592;1.456;2023-06-04T01:42:34;19.61;79.76
65584;DHT22;70321;43.592;1.456;2023-06-04T01:44:59;19.58;79.61
65584;DHT22;70321;43.592;1.456;2023-06-04T01:47:25;19.56;79.62
65584;DHT22;70321;43.592;1.456;2023-06-04T01:49:50;19.59;79.94
65584;DHT22;70321;43.592;1.456;2023-06-04T01:52:16;19.62;79.81
65584;DHT22;70321;43.592;1.456;2023-06-04T01:54:41;19.59;79.63
65584;DHT22;70321;43.592;1.456;2023-06-04T01:57:08;19.55;79.98
65584;DHT22;70321;43.592;1.456;2023-06-04T01:59:35;19.52;80.18
65584;DHT22;70321;43.592;1.456;2023-06-04T02:02:02;19.56;80.03
65584;DHT22;70321;43.592;1.456;2023-06-04T02:04:28;19.56;80.07
65584;DHT22;70321;43.592;1.456;2023-06-04T02:06:53;19.55;80.30
65584;DHT22;70321;43.592;1.456;2023-06-04T02:09:19;19.58;80.32
65584;DHT22;70321;43.592;1.456;2023-06-04T02:11:44;19.55;80.20
65584;DHT22;70321;43.592;1.456;2023-06-04T02:14:10;19.52;79.91
65584;DHT22;70321;43.592;1.456;2023-06-04T02:16:35;19.46;80.11
65584;DHT22;70321;43.592;1.456;2023-06-04T02:19:01;19.48;80.20
65584;DHT22;70321;43.592;1.456;2023-06-04T02:21:28;19.41;80.15
65584;DHT22;70321;43.592;1.456;2023-06-04T02:23:53;19.36;80.40
65584;DHT22;70321;43.592;1.456;2023-06-04T02:26:18;19.36;80.37
65584;DHT22;70321;43.592;1.456;2023-06-04T02:28:44;19.31;80.42
65584;DHT22;70321;43.592;1.456;2023-06-04T02:31:09;19.29;80.63
65584;DHT22;70321;43.592;1.456;2023-06-04T02:33:35;19.32;80.72
65584;DHT22;70321;43.592;1.456;2023-06-04T02:36:00;19.32;80.73
65584;DHT22;70321;43.592;1.456;2023-06-04T02:38:27;19.29;80.70
65584;DHT22;70321;43.592;1.456;2023-06-04T02:40:52;19.31;80.69
65584;DHT22;70321;43.592;1.456;2023-06-04T02:43:18;19.31;80.48
65584;DHT22;70321;43.592;1.456;2023-06-04T02:45:43;19.24;80.69
65584;DHT22;70321;43.592;1.456;2023-06-04T02:48:08;19.21;80.72
65584;DHT22;70321;43.592;1.456;2023-06-04T02:50:34;19.19;81.16
65584;DHT22;70321;43.592;1.456;2023-06-04T02:53:00;19.21;80.96
65584;DHT22;70321;43.592;1.456;2023-06-04T02:55:25;19.16;80.91
65584;DHT22;70321;43.592;1.456;2023-06-04T02:57:51;19.08;81.02
65584;DHT22;70321;43.592;1.456;2023-06-04T03:00:17;19.02;81.30
65584;DHT22;70321;43.592;1.456;2023-06-04T03:02:47;19.08;81.45
65584;DHT22;70321;43.592;1.456;2023-06-04T03:05:15;19.05;80.95
65584;DHT22;70321;43.592;1.456;2023-06-04T03:07:41;19.05;81.46
65584;DHT22;70321;43.592;1.456;2023-06-04T03:10:12;18.98;81.19
65584;DHT22;70321;43.592;1.456;2023-06-04T03:12:37;19.02;81.34
65584;DHT22;70321;43.592;1.456;2023-06-04T03:15:03;19.11;81.19
65584;DHT22;70321;43.592;1.456;2023-06-04T03:17:30;19.16;80.90
65584;DHT22;70321;43.592;1.456;2023-06-04T03:19:56;19.14;80.66
65584;DHT22;70321;43.592;1.456;2023-06-04T03:22:22;19.12;80.72
65584;DHT22;70321;43.592;1.456;2023-06-04T03:24:47;19.16;80.73
65584;DHT22;70321;43.592;1.456;2023-06-04T03:27:13;19.16;80.58
65584;DHT22;70321;43.592;1.456;2023-06-04T03:29:38;19.21;80.70
65584;DHT22;70321;43.592;1.456;2023-06-04T03:32:04;19.15;80.39
65584;DHT22;70321;43.592;1.456;2023-06-04T03:34:30;19.19;80.50
65584;DHT22;70321;43.592;1.456;2023-06-04T03:36:59;19.18;79.90
65584;DHT22;70321;43.592;1.456;2023-06-04T03:39:25;19.10;79.87
65584;DHT22;70321;43.592;1.456;2023-06-04T03:41:50;19.12;80.19
65584;DHT22;70321;43.592;1.456;2023-06-04T03:44:17;19.10;79.96
65584;DHT22;70321;43.592;1.456;2023-06-04T03:46:43;19.07;79.97
65584;DHT22;70321;43.592;1.456;2023-06-04T03:49:09;19.04;79.85
65584;DHT22;70321;43.592;1.456;2023-06-04T03:51:36;19.00;80.13
65584;DHT22;70321;43.592;1.456;2023-06-04T03:54:02;19.00;80.29
65584;DHT22;70321;43.592;1.456;2023-06-04T03:56:28;18.92;80.54
65584;DHT22;70321;43.592;1.456;2023-06-04T03:58:53;18.97;80.72
65584;DHT22;70321;43.592;1.456;2023-06-04T04:01:19;18.95;80.33
65584;DHT22;70321;43.592;1.456;2023-06-04T04:03:44;18.98;80.07
65584;DHT22;70321;43.592;1.456;2023-06-04T04:06:15;18.88;80.52
65584;DHT22;70321;43.592;1.456;2023-06-04T04:08:41;18.87;80.91
65584;DHT22;70321;43.592;1.456;2023-06-04T04:11:13;18.85;80.77
65584;DHT22;70321;43.592;1.456;2023-06-04T04:13:39;18.87;80.82
65584;DHT22;70321;43.592;1.456;2023-06-04T04:16:05;18.84;81.22
65584;DHT22;70321;43.592;1.456;2023-06-04T04:18:34;18.81;80.95
65584;DHT22;70321;43.592;1.456;2023-06-04T04:21:00;18.77;80.48
65584;DHT22;70321;43.592;1.456;2023-06-04T04:23:26;18.64;80.50
65584;DHT22;70321;43.592;1.456;2023-06-04T04:25:52;18.61;80.87
65584;DHT22;70321;43.592;1.456;2023-06-04T04:28:19;18.59;80.65
65584;DHT22;70321;43.592;1.456;2023-06-04T04:30:44;18.53;81.06
65584;DHT22;70321;43.592;1.456;2023-06-04T04:33:10;18.59;81.29
65584;DHT22;70321;43.592;1.456;2023-06-04T04:35:36;18.59;81.32
65584;DHT22;70321;43.592;1.456;2023-06-04T04:38:02;18.50;80.89
65584;DHT22;70321;43.592;1.456;2023-06-04T04:40:30;18.34;81.24
65584;DHT22;70321;43.592;1.456;2023-06-04T04:42:56;18.43;81.32
65584;DHT22;70321;43.592;1.456;2023-06-04T04:45:22;18.47;81.19
65584;DHT22;70321;43.592;1.456;2023-06-04T04:47:47;18.44;81.05
65584;DHT22;70321;43.592;1.456;2023-06-04T04:50:13;18.51;81.53
65584;DHT22;70321;43.592;1.456;2023-06-04T04:52:38;18.56;81.30
65584;DHT22;70321;43.592;1.456;2023-06-04T04:55:04;18.53;81.07
65584;DHT22;70321;43.592;1.456;2023-06-04T04:57:30;18.63;81.32
65584;DHT22;70321;43.592;1.456;2023-06-04T04:59:55;18.60;80.63
65584;DHT22;70321;43.592;1.456;2023-06-04T05:02:21;18.67;81.01
65584;DHT22;70321;43.592;1.456;2023-06-04T05:04:46;18.71;80.83
65584;DHT22;70321;43.592;1.456;2023-06-04T05:07:12;18.78;80.89
65584;DHT22;70321;43.592;1.456;2023-06-04T05:09:37;18.81;80.84
65584;DHT22;70321;43.592;1.456;2023-06-04T05:12:03;18.87;80.39
65584;DHT22;70321;43.592;1.456;2023-06-04T05:14:28;18.87;80.10
65584;DHT22;70321;43.592;1.456;2023-06-04T05:16:55;18.80;80.11
65584;DHT22;70321;43.592;1.456;2023-06-04T05:19:23;18.80;80.34
65584;DHT22;70321;43.592;1.456;2023-06-04T05:21:49;18.80;80.67
65584;DHT22;70321;43.592;1.456;2023-06-04T05:24:15;18.84;80.61
65584;DHT22;70321;43.592;1.456;2023-06-04T05:26:40;18.85;80.65
65584;DHT22;70321;43.592;1.456;2023-06-04T05:29:07;18.87;80.30
65584;DHT22;70321;43.592;1.456;2023-06-04T05:31:33;18.90;80.37
65584;DHT22;70321;43.592;1.456;2023-06-04T05:34:00;18.97;80.49
65584;DHT22;70321;43.592;1.456;2023-06-04T05:36:31;19.04;80.42
65584;DHT22;70321;43.592;1.456;2023-06-04T05:38:57;19.07;80.22
65584;DHT22;70321;43.592;1.456;2023-06-04T05:41:26;19.12;80.47
65584;DHT22;70321;43.592;1.456;2023-06-04T05:43:52;19.16;80.13
65584;DHT22;70321;43.592;1.456;2023-06-04T05:46:18;19.25;80.57
65584;DHT22;70321;43.592;1.456;2023-06-04T05:48:43;19.18;79.92
65584;DHT22;70321;43.592;1.456;2023-06-04T05:51:08;19.21;80.39
65584;DHT22;70321;43.592;1.456;2023-06-04T05:53:34;19.22;80.38
65584;DHT22;70321;43.592;1.456;2023-06-04T05:55:59;19.25;80.01
65584;DHT22;70321;43.592;1.456;2023-06-04T05:58:25;19.29;79.87
65584;DHT22;70321;43.592;1.456;2023-06-04T06:00:51;19.31;79.91
65584;DHT22;70321;43.592;1.456;2023-06-04T06:03:16;19.38;79.43
65584;DHT22;70321;43.592;1.456;2023-06-04T06:05:42;19.32;80.33
65584;DHT22;70321;43.592;1.456;2023-06-04T06:08:08;19.34;80.23
65584;DHT22;70321;43.592;1.456;2023-06-04T06:10:34;19.28;80.56
65584;DHT22;70321;43.592;1.456;2023-06-04T06:12:59;19.32;80.88
65584;DHT22;70321;43.592;1.456;2023-06-04T06:15:27;19.22;81.01
65584;DHT22;70321;43.592;1.456;2023-06-04T06:17:54;19.21;81.45
65584;DHT22;70321;43.592;1.456;2023-06-04T06:20:19;19.25;81.77
65584;DHT22;70321;43.592;1.456;2023-06-04T06:22:45;19.22;81.72
65584;DHT22;70321;43.592;1.456;2023-06-04T06:25:11;19.29;81.94
65584;DHT22;70321;43.592;1.456;2023-06-04T06:27:39;19.31;81.88
65584;DHT22;70321;43.592;1.456;2023-06-04T06:30:06;19.31;81.45
65584;DHT22;70321;43.592;1.456;2023-06-04T06:32:32;19.32;81.45
65584;DHT22;70321;43.592;1.456;2023-06-04T06:34:57;19.35;81.47
65584;DHT22;70321;43.592;1.456;2023-06-04T06:37:22;19.39;81.44
65584;DHT22;70321;43.592;1.456;2023-06-04T06:39:48;19.38;81.13
65584;DHT22;70321;43.592;1.456;2023-06-04T06:42:13;19.35;81.34
65584;DHT22;70321;43.592;1.456;2023-06-04T06:44:39;19.34;81.42
65584;DHT22;70321;43.592;1.456;2023-06-04T06:47:04;19.31;81.54
65584;DHT22;70321;43.592;1.456;2023-06-04T06:49:30;19.34;81.76
65584;DHT22;70321;43.592;1.456;2023-06-04T06:51:55;19.39;81.84
65584;DHT22;70321;43.592;1.456;2023-06-04T06:54:21;19.44;81.72
65584;DHT22;70321;43.592;1.456;2023-06-04T06:56:48;19.58;81.67
65584;DHT22;70321;43.592;1.456;2023-06-04T06:59:14;19.62;80.67
65584;DHT22;70321;43.592;1.456;2023-06-04T07:01:40;19.58;81.19
65584;DHT22;70321;43.592;1.456;2023-06-04T07:04:05;19.62;81.07
65584;DHT22;70321;43.592;1.456;2023-06-04T07:06:31;19.67;81.15
65584;DHT22;70321;43.592;1.456;2023-06-04T07:08:57;19.70;81.42
65584;DHT22;70321;43.592;1.456;2023-06-04T07:11:23;19.76;81.01
65584;DHT22;70321;43.592;1.456;2023-06-04T07:13:48;19.79;80.40
65584;DHT22;70321;43.592;1.456;2023-06-04T07:16:14;19.80;80.68
65584;DHT22;70321;43.592;1.456;2023-06-04T07:18:39;19.83;80.93
65584;DHT22;70321;43.592;1.456;2023-06-04T07:21:04;19.86;80.50
65584;DHT22;70321;43.592;1.456;2023-06-04T07:23:30;19.86;81.02
65584;DHT22;70321;43.592;1.456;2023-06-04T07:25:56;19.89;80.45
65584;DHT22;70321;43.592;1.456;2023-06-04T07:28:22;19.93;80.68
65584;DHT22;70321;43.592;1.456;2023-06-04T07:30:47;19.90;80.06
65584;DHT22;70321;43.592;1.456;2023-06-04T07:33:13;19.87;80.25
65584;DHT22;70321;43.592;1.456;2023-06-04T07:35:38;19.92;80.55
65584;DHT22;70321;43.592;1.456;2023-06-04T07:38:04;19.96;80.75
65584;DHT22;70321;43.592;1.456;2023-06-04T07:40:30;19.96;80.63
65584;DHT22;70321;43.592;1.456;2023-06-04T07:42:55;20.00;80.59
65584;DHT22;70321;43.592;1.456;2023-06-04T07:45:21;20.07;79.87
65584;DHT22;70321;43.592;1.456;2023-06-04T07:47:47;20.06;79.83
65584;DHT22;70321;43.592;1.456;2023-06-04T07:50:12;20.07;78.94
65584;DHT22;70321;43.592;1.456;2023-06-04T07:52:37;20.10;78.75
65584;DHT22;70321;43.592;1.456;2023-06-04T07:55:03;20.12;78.91
65584;DHT22;70321;43.592;1.456;2023-06-04T07:57:29;20.16;78.90
65584;DHT22;70321;43.592;1.456;2023-06-04T07:59:54;20.21;78.54
65584;DHT22;70321;43.592;1.456;2023-06-04T08:02:22;20.30;78.45
65584;DHT22;70321;43.592;1.456;2023-06-04T08:04:47;20.40;78.30
65584;DHT22;70321;43.592;1.456;2023-06-04T08:07:13;20.44;77.67
65584;DHT22;70321;43.592;1.456;2023-06-04T08:09:38;20.50;77.60
65584;DHT22;70321;43.592;1.456;2023-06-04T08:12:04;20.61;77.44
65584;DHT22;70321;43.592;1.456;2023-06-04T08:14:30;20.65;77.53
65584;DHT22;70321;43.592;1.456;2023-06-04T08:16:57;20.67;76.09
65584;DHT22;70321;43.592;1.456;2023-06-04T08:19:23;20.68;76.15
65584;DHT22;70321;43.592;1.456;2023-06-04T08:21:49;20.68;75.51
65584;DHT22;70321;43.592;1.456;2023-06-04T08:24:15;20.64;75.77
65584;DHT22;70321;43.592;1.456;2023-06-04T08:26:40;20.64;76.30
65584;DHT22;70321;43.592;1.456;2023-06-04T08:29:07;20.68;76.30
65584;DHT22;70321;43.592;1.456;2023-06-04T08:31:32;20.65;75.14
65584;DHT22;70321;43.592;1.456;2023-06-04T08:33:58;20.67;74.56
65584;DHT22;70321;43.592;1.456;2023-06-04T08:36:24;20.73;74.26
65584;DHT22;70321;43.592;1.456;2023-06-04T08:38:49;20.83;74.61
65584;DHT22;70321;43.592;1.456;2023-06-04T08:41:26;20.88;73.27
65584;DHT22;70321;43.592;1.456;2023-06-04T08:43:56;20.88;73.31
65584;DHT22;70321;43.592;1.456;2023-06-04T08:46:23;20.88;73.20
65584;DHT22;70321;43.592;1.456;2023-06-04T08:48:49;20.87;72.84
65584;DHT22;70321;43.592;1.456;2023-06-04T08:51:15;20.92;74.11
65584;DHT22;70321;43.592;1.456;2023-06-04T08:53:42;20.96;73.67
65584;DHT22;70321;43.592;1.456;2023-06-04T08:56:08;21.04;72.86
65584;DHT22;70321;43.592;1.456;2023-06-04T08:58:39;21.11;72.20
65584;DHT22;70321;43.592;1.456;2023-06-04T09:01:05;21.18;72.46
65584;DHT22;70321;43.592;1.456;2023-06-04T09:03:31;21.26;72.28
65584;DHT22;70321;43.592;1.456;2023-06-04T09:05:58;21.34;72.13
65584;DHT22;70321;43.592;1.456;2023-06-04T09:08:24;21.43;72.35
65584;DHT22;70321;43.592;1.456;2023-06-04T09:10:50;21.48;70.63
65584;DHT22;70321;43.592;1.456;2023-06-04T09:13:18;21.53;70.98
65584;DHT22;70321;43.592;1.456;2023-06-04T09:15:44;21.63;71.96
65584;DHT22;70321;43.592;1.456;2023-06-04T09:18:11;21.75;71.45
65584;DHT22;70321;43.592;1.456;2023-06-04T09:20:37;21.82;69.49
65584;DHT22;70321;43.592;1.456;2023-06-04T09:23:12;21.88;68.26
65584;DHT22;70321;43.592;1.456;2023-06-04T09:25:42;22.02;69.11
65584;DHT22;70321;43.592;1.456;2023-06-04T09:28:07;22.14;69.06
65584;DHT22;70321;43.592;1.456;2023-06-04T09:30:33;22.24;69.18
65584;DHT22;70321;43.592;1.456;2023-06-04T09:33:10;22.36;67.60
65584;DHT22;70321;43.592;1.456;2023-06-04T09:35:37;22.44;66.36
65584;DHT22;70321;43.592;1.456;2023-06-04T09:38:04;22.47;66.30
65584;DHT22;70321;43.592;1.456;2023-06-04T09:40:37;22.54;67.55
65584;DHT22;70321;43.592;1.456;2023-06-04T09:43:02;22.65;66.24
65584;DHT22;70321;43.592;1.456;2023-06-04T09:45:31;22.67;65.46
65584;DHT22;70321;43.592;1.456;2023-06-04T09:47:58;22.72;64.23
65584;DHT22;70321;43.592;1.456;2023-06-04T09:52:56;22.83;66.17
65584;DHT22;70321;43.592;1.456;2023-06-04T09:55:22;22.95;66.40
65584;DHT22;70321;43.592;1.456;2023-06-04T09:57:50;23.14;65.86
65584;DHT22;70321;43.592;1.456;2023-06-04T10:00:18;23.20;65.14
65584;DHT22;70321;43.592;1.456;2023-06-04T10:02:47;23.20;63.91
65584;DHT22;70321;43.592;1.456;2023-06-04T10:05:14;23.15;64.72
65584;DHT22;70321;43.592;1.456;2023-06-04T10:07:44;23.22;66.05
65584;DHT22;70321;43.592;1.456;2023-06-04T10:10:17;23.33;64.54
65584;DHT22;70321;43.592;1.456;2023-06-04T10:12:45;23.42;63.69
65584;DHT22;70321;43.592;1.456;2023-06-04T10:15:13;23.43;63.66
65584;DHT22;70321;43.592;1.456;2023-06-04T10:17:39;23.45;62.99
65584;DHT22;70321;43.592;1.456;2023-06-04T10:20:07;23.41;61.93
65584;DHT22;70321;43.592;1.456;2023-06-04T10:22:37;23.29;63.01
65584;DHT22;70321;43.592;1.456;2023-06-04T10:25:03;23.25;64.38
65584;DHT22;70321;43.592;1.456;2023-06-04T10:27:31;23.32;63.44
65584;DHT22;70321;43.592;1.456;2023-06-04T10:29:57;23.42;65.25
65584;DHT22;70321;43.592;1.456;2023-06-04T10:32:27;23.55;64.08
65584;DHT22;70321;43.592;1.456;2023-06-04T10:34:52;23.60;62.61
65584;DHT22;70321;43.592;1.456;2023-06-04T10:37:22;23.66;62.37
65584;DHT22;70321;43.592;1.456;2023-06-04T10:39:52;23.80;62.48
65584;DHT22;70321;43.592;1.456;2023-06-04T10:42:18;23.94;63.38
65584;DHT22;70321;43.592;1.456;2023-06-04T10:44:49;23.97;62.87
65584;DHT22;70321;43.592;1.456;2023-06-04T10:47:21;23.92;62.57
65584;DHT22;70321;43.592;1.456;2023-06-04T10:49:49;23.87;63.34
65584;DHT22;70321;43.592;1.456;2023-06-04T10:52:14;23.76;63.05
65584;DHT22;70321;43.592;1.456;2023-06-04T10:54:42;23.77;62.43
65584;DHT22;70321;43.592;1.456;2023-06-04T10:57:14;23.87;61.10
65584;DHT22;70321;43.592;1.456;2023-06-04T10:59:40;23.96;63.12
65584;DHT22;70321;43.592;1.456;2023-06-04T11:02:07;24.04;60.57
65584;DHT22;70321;43.592;1.456;2023-06-04T11:04:33;23.99;60.63
65584;DHT22;70321;43.592;1.456;2023-06-04T11:07:05;23.94;58.77
65584;DHT22;70321;43.592;1.456;2023-06-04T11:09:49;23.94;59.26
65584;DHT22;70321;43.592;1.456;2023-06-04T11:12:15;24.04;59.28
65584;DHT22;70321;43.592;1.456;2023-06-04T11:14:41;23.97;57.88
65584;DHT22;70321;43.592;1.456;2023-06-04T11:17:18;23.92;59.73
65584;DHT22;70321;43.592;1.456;2023-06-04T11:19:43;23.92;58.75
65584;DHT22;70321;43.592;1.456;2023-06-04T11:22:12;23.97;60.19
65584;DHT22;70321;43.592;1.456;2023-06-04T11:24:37;24.02;57.71
65584;DHT22;70321;43.592;1.456;2023-06-04T11:27:03;24.13;57.59
65584;DHT22;70321;43.592;1.456;2023-06-04T11:29:29;24.13;58.81
65584;DHT22;70321;43.592;1.456;2023-06-04T11:31:54;24.26;57.69
65584;DHT22;70321;43.592;1.456;2023-06-04T11:34:30;24.43;57.70
65584;DHT22;70321;43.592;1.456;2023-06-04T11:37:07;24.53;59.00
65584;DHT22;70321;43.592;1.456;2023-06-04T11:39:36;24.56;58.94
65584;DHT22;70321;43.592;1.456;2023-06-04T11:42:04;24.47;57.02
65584;DHT22;70321;43.592;1.456;2023-06-04T11:44:31;24.40;57.48
65584;DHT22;70321;43.592;1.456;2023-06-04T11:46:56;24.31;58.31
65584;DHT22;70321;43.592;1.456;2023-06-04T11:49:22;24.28;56.51
65584;DHT22;70321;43.592;1.456;2023-06-04T11:51:48;24.31;55.67
65584;DHT22;70321;43.592;1.456;2023-06-04T11:54:18;24.44;55.52
65584;DHT22;70321;43.592;1.456;2023-06-04T11:56:44;24.56;56.74
65584;DHT22;70321;43.592;1.456;2023-06-04T11:59:14;24.77;53.34
65584;DHT22;70321;43.592;1.456;2023-06-04T12:01:41;24.87;55.52
65584;DHT22;70321;43.592;1.456;2023-06-04T12:04:16;25.05;54.00
65584;DHT22;70321;43.592;1.456;2023-06-04T12:06:56;25.15;55.34
65584;DHT22;70321;43.592;1.456;2023-06-04T12:09:28;25.21;51.93
65584;DHT22;70321;43.592;1.456;2023-06-04T12:12:04;25.14;54.52
65584;DHT22;70321;43.592;1.456;2023-06-04T12:14:30;25.04;54.84
65584;DHT22;70321;43.592;1.456;2023-06-04T12:17:01;24.95;56.92
65584;DHT22;70321;43.592;1.456;2023-06-04T12:19:27;24.95;58.39
65584;DHT22;70321;43.592;1.456;2023-06-04T12:22:06;24.99;55.26
65584;DHT22;70321;43.592;1.456;2023-06-04T12:24:33;25.07;55.41
65584;DHT22;70321;43.592;1.456;2023-06-04T12:27:03;25.23;53.93
65584;DHT22;70321;43.592;1.456;2023-06-04T12:29:28;25.39;54.01
65584;DHT22;70321;43.592;1.456;2023-06-04T12:32:08;25.49;51.96
65584;DHT22;70321;43.592;1.456;2023-06-04T12:34:35;25.58;51.48
65584;DHT22;70321;43.592;1.456;2023-06-04T12:37:01;25.61;51.80
65584;DHT22;70321;43.592;1.456;2023-06-04T12:39:28;25.62;52.08
65584;DHT22;70321;43.592;1.456;2023-06-04T12:41:54;25.59;53.61
65584;DHT22;70321;43.592;1.456;2023-06-04T12:44:20;25.65;50.67
65584;DHT22;70321;43.592;1.456;2023-06-04T12:46:46;25.69;51.93
65584;DHT22;70321;43.592;1.456;2023-06-04T12:49:12;25.65;52.58
65584;DHT22;70321;43.592;1.456;2023-06-04T12:51:37;25.59;55.31
65584;DHT22;70321;43.592;1.456;2023-06-04T12:54:04;25.49;55.05
65584;DHT22;70321;43.592;1.456;2023-06-04T12:56:30;25.35;54.84
65584;DHT22;70321;43.592;1.456;2023-06-04T12:58:55;25.31;56.53
65584;DHT22;70321;43.592;1.456;2023-06-04T13:01:21;25.26;55.61
65584;DHT22;70321;43.592;1.456;2023-06-04T13:03:46;25.22;57.35
65584;DHT22;70321;43.592;1.456;2023-06-04T13:06:12;25.26;53.61
65584;DHT22;70321;43.592;1.456;2023-06-04T13:08:37;25.36;56.47
65584;DHT22;70321;43.592;1.456;2023-06-04T13:11:03;25.52;53.96
65584;DHT22;70321;43.592;1.456;2023-06-04T13:13:29;25.62;51.37
65584;DHT22;70321;43.592;1.456;2023-06-04T13:15:55;25.76;52.24
65584;DHT22;70321;43.592;1.456;2023-06-04T13:18:21;25.76;52.54
65584;DHT22;70321;43.592;1.456;2023-06-04T13:20:46;25.69;49.93
65584;DHT22;70321;43.592;1.456;2023-06-04T13:23:14;25.65;52.73
65584;DHT22;70321;43.592;1.456;2023-06-04T13:25:39;25.58;53.62
65584;DHT22;70321;43.592;1.456;2023-06-04T13:28:05;25.46;54.78
65584;DHT22;70321;43.592;1.456;2023-06-04T13:30:31;25.33;52.86
65584;DHT22;70321;43.592;1.456;2023-06-04T13:32:57;25.25;52.49
65584;DHT22;70321;43.592;1.456;2023-06-04T13:35:25;25.35;52.61
65584;DHT22;70321;43.592;1.456;2023-06-04T13:37:51;25.39;53.74
65584;DHT22;70321;43.592;1.456;2023-06-04T13:40:16;25.42;54.88
65584;DHT22;70321;43.592;1.456;2023-06-04T13:42:41;25.42;56.06
65584;DHT22;70321;43.592;1.456;2023-06-04T13:45:10;25.53;54.91
65584;DHT22;70321;43.592;1.456;2023-06-04T13:47:35;25.62;54.42
65584;DHT22;70321;43.592;1.456;2023-06-04T13:50:01;25.65;53.72
65584;DHT22;70321;43.592;1.456;2023-06-04T13:52:26;25.61;53.52
65584;DHT22;70321;43.592;1.456;2023-06-04T13:54:55;25.63;53.86
65584;DHT22;70321;43.592;1.456;2023-06-04T13:57:21;25.67;52.82
65584;DHT22;70321;43.592;1.456;2023-06-04T13:59:46;25.75;51.87
65584;DHT22;70321;43.592;1.456;2023-06-04T14:02:12;25.87;52.03
65584;DHT22;70321;43.592;1.456;2023-06-04T14:04:37;25.98;50.12
65584;DHT22;70321;43.592;1.456;2023-06-04T14:07:03;26.08;52.09
65584;DHT22;70321;43.592;1.456;2023-06-04T14:09:28;26.10;52.84
65584;DHT22;70321;43.592;1.456;2023-06-04T14:11:54;26.21;48.13
65584;DHT22;70321;43.592;1.456;2023-06-04T14:14:22;26.26;50.15
65584;DHT22;70321;43.592;1.456;2023-06-04T14:16:48;26.34;50.66
65584;DHT22;70321;43.592;1.456;2023-06-04T14:19:14;26.43;47.98
65584;DHT22;70321;43.592;1.456;2023-06-04T14:21:43;26.43;47.01
65584;DHT22;70321;43.592;1.456;2023-06-04T14:24:08;26.45;47.36
65584;DHT22;70321;43.592;1.456;2023-06-04T14:26:35;26.51;49.75
65584;DHT22;70321;43.592;1.456;2023-06-04T14:29:01;26.64;49.16
65584;DHT22;70321;43.592;1.456;2023-06-04T14:31:26;26.71;48.75
65584;DHT22;70321;43.592;1.456;2023-06-04T14:33:51;26.75;49.83
65584;DHT22;70321;43.592;1.456;2023-06-04T14:36:17;26.77;50.15
65584;DHT22;70321;43.592;1.456;2023-06-04T14:38:43;26.74;49.13
65584;DHT22;70321;43.592;1.456;2023-06-04T14:41:08;26.72;48.61
65584;DHT22;70321;43.592;1.456;2023-06-04T14:43:34;26.75;49.66
65584;DHT22;70321;43.592;1.456;2023-06-04T14:45:59;26.75;51.07
65584;DHT22;70321;43.592;1.456;2023-06-04T14:48:25;26.80;46.93
65584;DHT22;70321;43.592;1.456;2023-06-04T14:50:50;26.72;47.83
65584;DHT22;70321;43.592;1.456;2023-06-04T14:53:18;26.64;48.76
65584;DHT22;70321;43.592;1.456;2023-06-04T14:55:44;26.64;49.07
65584;DHT22;70321;43.592;1.456;2023-06-04T14:58:09;26.65;51.44
65584;DHT22;70321;43.592;1.456;2023-06-04T15:00:36;26.62;48.97
65584;DHT22;70321;43.592;1.456;2023-06-04T15:03:01;26.52;48.47
65584;DHT22;70321;43.592;1.456;2023-06-04T15:05:27;26.45;49.38
65584;DHT22;70321;43.592;1.456;2023-06-04T15:07:52;26.37;51.28
65584;DHT22;70321;43.592;1.456;2023-06-04T15:10:18;26.43;50.39
65584;DHT22;70321;43.592;1.456;2023-06-04T15:12:43;26.40;50.24
65584;DHT22;70321;43.592;1.456;2023-06-04T15:15:09;26.37;49.77
65584;DHT22;70321;43.592;1.456;2023-06-04T15:17:35;26.34;50.89
65584;DHT22;70321;43.592;1.456;2023-06-04T15:20:04;26.33;50.19
65584;DHT22;70321;43.592;1.456;2023-06-04T15:22:30;26.26;49.47
65584;DHT22;70321;43.592;1.456;2023-06-04T15:24:55;26.18;50.67
65584;DHT22;70321;43.592;1.456;2023-06-04T15:27:21;26.13;51.80
65584;DHT22;70321;43.592;1.456;2023-06-04T15:29:46;26.07;52.15
65584;DHT22;70321;43.592;1.456;2023-06-04T15:32:12;26.00;50.53
65584;DHT22;70321;43.592;1.456;2023-06-04T15:34:37;25.96;51.42
65584;DHT22;70321;43.592;1.456;2023-06-04T15:37:03;25.90;53.28